BCU weather

Oreganal Airport
Barrancas, La Guajira Department, Colombia

Public forecast

Using degrees Celsius for public forecast. Weather courtesy of forecast.io.

Closest aviation weather report (METAR) to Oreganal Airport

Closest report is Almirante Padilla Airport, 34.6 nm (64.1 km) NNW. Retrieved 2020/02/19 13:00 UTC (14 seconds ago):

SKRH 191300Z 09012G23KT 9999 OVC015 28/22 A2989

Closest aviation forecast (TAF) to Oreganal Airport

Forecast is more than 12 hours old.

Closest forecast is Almirante Padilla Airport, 34.6 nm (64.1 km) NNW. Retrieved 2013/12/29 00:30 UTC (6 years ago):

TAF SKRH 262200Z 2700/2724 07010KT 9999 FEW020 SCT200 TEMPO 2701/2705 FEW017 TEMPO 2709/2711 CAVOK TEMPO 2719/2723 12007KT FEW015 TX32/2718Z TN23/2710Z